createdAt,value
2019-03-24T20:28:36.322Z,11.20
2019-03-24T20:31:04.700Z,13.05
2019-03-24T20:33:33.052Z,9.05
2019-03-24T20:36:01.406Z,7.25
2019-03-24T20:38:29.773Z,9.23
2019-03-24T20:40:58.121Z,9.10
2019-03-24T20:43:26.504Z,6.75
2019-03-24T20:45:54.861Z,8.05
2019-03-24T20:48:23.211Z,7.58
2019-03-24T20:50:51.585Z,10.15
2019-03-24T20:53:19.965Z,10.05
2019-03-24T20:55:48.320Z,6.92
2019-03-24T20:58:16.674Z,9.93
2019-03-24T21:00:45.376Z,7.50
2019-03-24T21:03:13.743Z,10.00
2019-03-24T21:05:42.098Z,10.25
2019-03-24T21:08:10.463Z,9.08
2019-03-24T21:10:38.812Z,8.93
2019-03-24T21:13:07.180Z,10.75
2019-03-24T21:15:37.079Z,10.55
2019-03-24T21:18:05.589Z,8.15
2019-03-24T21:20:33.939Z,10.75
2019-03-24T21:23:02.302Z,12.63
2019-03-24T21:25:30.678Z,9.28
2019-03-24T21:27:59.029Z,10.50
2019-03-24T21:30:32.574Z,10.00
2019-03-24T21:33:01.423Z,11.40
2019-03-24T21:35:29.777Z,10.35
2019-03-24T21:37:58.505Z,9.98
2019-03-24T21:40:26.955Z,11.10
2019-03-24T21:42:55.311Z,11.22
2019-03-24T21:45:23.676Z,8.10
2019-03-24T21:47:52.033Z,9.38
2019-03-24T21:50:20.414Z,12.35
2019-03-24T21:52:48.773Z,10.08
2019-03-24T21:55:17.144Z,11.10
2019-03-24T21:57:56.740Z,11.45
2019-03-24T22:00:18.849Z,8.95
2019-03-24T22:02:47.200Z,8.18
2019-03-24T22:05:15.576Z,9.28
2019-03-24T22:07:43.946Z,9.08
2019-03-24T22:10:12.298Z,9.58
2019-03-24T22:12:40.719Z,10.43
2019-03-24T22:15:09.506Z,8.83
2019-03-24T22:17:37.852Z,12.20
2019-03-24T22:20:07.105Z,12.18
2019-03-24T22:22:35.464Z,14.73
2019-03-24T22:25:04.583Z,11.85
2019-03-24T22:27:32.940Z,11.80
2019-03-24T22:30:01.315Z,12.18
2019-03-24T22:32:29.664Z,9.70
2019-03-24T22:34:58.032Z,13.75
2019-03-24T22:37:26.380Z,9.08
2019-03-24T22:39:54.733Z,9.05
2019-03-24T22:42:23.117Z,10.85
2019-03-24T22:44:51.465Z,12.03
2019-03-24T22:47:19.832Z,12.00
2019-03-24T22:49:48.199Z,13.25
2019-03-24T22:52:16.557Z,13.32
2019-03-24T22:54:44.946Z,11.43
2019-03-24T22:57:13.300Z,15.48
2019-03-24T22:59:41.657Z,13.40
2019-03-24T23:02:10.036Z,11.68
2019-03-24T23:04:38.405Z,13.22
2019-03-24T23:07:06.799Z,19.52
2019-03-24T23:09:35.151Z,12.82
2019-03-24T23:12:03.699Z,17.48
2019-03-24T23:14:32.053Z,14.05
2019-03-24T23:17:00.449Z,14.25
2019-03-24T23:19:28.814Z,13.38
2019-03-24T23:21:57.169Z,13.93
2019-03-24T23:24:25.561Z,16.60
2019-03-24T23:26:53.943Z,14.58
2019-03-24T23:29:22.312Z,15.25
2019-03-24T23:31:50.680Z,14.35
2019-03-24T23:34:19.046Z,14.20
2019-03-24T23:36:47.494Z,13.88
2019-03-24T23:39:15.859Z,16.97
2019-03-24T23:41:44.238Z,15.80
2019-03-24T23:44:12.617Z,16.25
2019-03-24T23:46:40.978Z,13.32
2019-03-24T23:49:09.352Z,14.80
2019-03-24T23:51:37.708Z,20.68
2019-03-24T23:54:06.088Z,16.37
2019-03-24T23:56:34.444Z,16.23
2019-03-24T23:59:02.830Z,17.45
